Time;durP1;ratioP1;P1;durP2;ratioP2;P2;SDS_P1;SDS_P2;PMS_P1;PMS_P2;Temp;Humidity;BMP_temperature;BMP_pressure;BME280_temperature;BME280_humidity;BME280_pressure;Samples;Min_cycle;Max_cycle;Signal;HPM_P1;HPM_P2
2023/02/17 00:02:12;;;;;;;4.60;2.78;;;15.30;62.70;;;;;;2290351;54;21741;-83
2023/02/17 00:04:38;;;;;;;5.15;2.60;;;15.30;62.60;;;;;;2523601;54;20902;-82
2023/02/17 00:07:04;;;;;;;5.60;2.72;;;15.30;62.60;;;;;;2523504;54;20998;-82
2023/02/17 00:09:30;;;;;;;4.20;2.53;;;15.30;62.60;;;;;;2290285;54;20906;-82
2023/02/17 00:11:57;;;;;;;5.57;2.45;;;15.30;62.50;;;;;;2523996;54;21065;-82
2023/02/17 00:14:23;;;;;;;4.57;2.50;;;15.30;62.50;;;;;;2290835;54;20941;-83
2023/02/17 00:16:49;;;;;;;4.78;2.55;;;15.30;62.60;;;;;;2523784;54;21036;-82
2023/02/17 00:19:24;;;;;;;3.62;2.25;;;15.30;62.50;;;;;;2290190;54;21443;-82
2023/02/17 00:21:55;;;;;;;6.22;2.90;;;15.40;62.80;;;;;;2290195;54;21183;-81
2023/02/17 00:24:23;;;;;;;4.55;2.70;;;15.30;62.30;;;;;;2289957;54;20918;-82
2023/02/17 00:26:49;;;;;;;7.50;3.05;;;15.30;62.50;;;;;;2523150;54;20949;-80
2023/02/17 00:29:15;;;;;;;7.47;3.25;;;15.30;62.40;;;;;;2522489;54;20929;-82
2023/02/17 00:31:42;;;;;;;5.53;2.50;;;15.30;62.40;;;;;;2294539;54;21068;-83
2023/02/17 00:34:08;;;;;;;4.97;2.42;;;15.30;62.40;;;;;;2523253;54;20909;-81
2023/02/17 00:36:34;;;;;;;4.20;2.28;;;15.30;62.40;;;;;;2522639;54;22232;-82
2023/02/17 00:39:00;;;;;;;4.55;2.33;;;15.30;62.40;;;;;;2290223;54;20925;-82
2023/02/17 00:41:27;;;;;;;5.85;2.92;;;15.30;62.40;;;;;;2293560;54;20926;-82
2023/02/17 00:43:53;;;;;;;6.55;2.42;;;15.30;62.20;;;;;;2523908;54;20917;-82
2023/02/17 00:46:20;;;;;;;4.05;2.28;;;15.20;62.20;;;;;;2522522;54;21010;-81
2023/02/17 00:48:46;;;;;;;4.82;2.60;;;15.20;62.30;;;;;;2524365;54;21051;-82
2023/02/17 00:51:14;;;;;;;4.90;2.70;;;15.20;62.20;;;;;;2522861;54;20905;-82
2023/02/17 00:53:41;;;;;;;4.82;2.20;;;15.20;62.00;;;;;;2522831;54;20902;-82
2023/02/17 00:56:07;;;;;;;5.75;2.42;;;15.30;62.40;;;;;;2290658;54;22109;-81
2023/02/17 00:58:34;;;;;;;4.82;2.60;;;15.20;62.20;;;;;;2523375;54;20973;-82
2023/02/17 01:01:00;;;;;;;4.70;2.60;;;15.20;62.20;;;;;;2522893;54;20938;-82
2023/02/17 01:03:27;;;;;;;4.22;2.40;;;15.20;62.20;;;;;;2290597;54;20995;-81
2023/02/17 01:05:53;;;;;;;3.90;2.10;;;15.20;62.20;;;;;;2290521;54;20966;-82
2023/02/17 01:08:19;;;;;;;4.53;2.50;;;15.20;62.20;;;;;;2289949;54;20966;-80
2023/02/17 01:10:46;;;;;;;4.00;2.12;;;15.20;62.20;;;;;;2289975;54;20926;-83
2023/02/17 01:13:14;;;;;;;5.20;2.50;;;15.20;62.20;;;;;;2290388;54;20973;-82
2023/02/17 01:15:41;;;;;;;3.37;1.98;;;15.20;62.00;;;;;;2522916;54;20982;-82
2023/02/17 01:18:08;;;;;;;5.05;2.40;;;15.20;62.10;;;;;;2523406;54;20910;-82
2023/02/17 01:20:37;;;;;;;5.22;2.35;;;15.20;62.10;;;;;;2523104;54;20925;-82
2023/02/17 01:23:04;;;;;;;5.37;2.75;;;15.20;62.80;;;;;;2290555;54;21733;-82
2023/02/17 01:25:31;;;;;;;5.57;2.42;;;15.20;62.10;;;;;;2523090;54;20973;-82
2023/02/17 01:27:57;;;;;;;4.32;2.28;;;15.20;62.20;;;;;;2523531;54;20989;-81
2023/02/17 01:30:23;;;;;;;4.85;2.35;;;15.20;62.10;;;;;;2523079;54;20968;-82
2023/02/17 01:32:49;;;;;;;4.53;2.25;;;15.20;62.10;;;;;;2294626;54;20942;-84
2023/02/17 01:35:15;;;;;;;6.47;2.60;;;15.20;61.90;;;;;;2521293;54;20973;-84
2023/02/17 01:37:42;;;;;;;6.03;2.80;;;15.10;61.80;;;;;;2290479;54;20910;-81
2023/02/17 01:40:09;;;;;;;4.65;2.65;;;15.20;61.90;;;;;;2523823;54;20958;-81
2023/02/17 01:42:35;;;;;;;5.43;3.45;;;15.20;62.00;;;;;;2523804;54;20997;-81
2023/02/17 01:48:37;;;;;;;4.82;2.78;;;15.10;61.90;;;;;;2523975;54;21074;-81
2023/02/17 01:51:10;;;;;;;4.40;2.30;;;15.20;60.30;;;;;;2290548;54;20950;-82
2023/02/17 01:53:39;;;;;;;5.40;2.50;;;15.20;61.90;;;;;;2290768;54;20966;-84
2023/02/17 01:56:05;;;;;;;4.22;2.50;;;15.10;62.00;;;;;;2523828;54;20929;-85
2023/02/17 01:58:32;;;;;;;5.55;2.60;;;15.10;62.10;;;;;;2523493;54;20886;-84
2023/02/17 02:01:00;;;;;;;6.37;2.62;;;15.20;62.30;;;;;;2523869;54;20941;-83
2023/02/17 02:03:27;;;;;;;6.43;2.62;;;15.10;62.10;;;;;;2523618;54;20965;-84
2023/02/17 02:05:53;;;;;;;5.22;2.25;;;15.10;62.10;;;;;;2295722;54;21077;-85
2023/02/17 02:08:19;;;;;;;6.32;2.65;;;15.10;62.10;;;;;;2290294;54;20941;-84
2023/02/17 02:10:46;;;;;;;10.20;3.08;;;15.10;62.10;;;;;;2290793;54;20905;-84
2023/02/17 02:13:12;;;;;;;4.50;2.45;;;15.10;62.10;;;;;;2290556;54;20942;-84
2023/02/17 02:15:44;;;;;;;5.12;2.72;;;15.10;62.10;;;;;;2523939;54;20913;-83
2023/02/17 02:22:50;;;;;;;4.90;2.60;;;15.10;62.00;;;;;;2290886;54;20886;-82
2023/02/17 02:26:45;;;;;;;4.07;1.92;;;15.10;60.20;;;;;;2523854;54;21009;-82
2023/02/17 02:30:27;;;;;;;3.28;1.90;;;15.10;60.80;;;;;;2291066;54;21248;-83
2023/02/17 02:33:00;;;;;;;3.62;1.90;;;15.10;61.90;;;;;;2291294;54;20929;-81
2023/02/17 02:36:12;;;;;;;4.25;2.00;;;15.00;62.60;;;;;;2523039;54;21339;-82
2023/02/17 02:40:00;;;;;;;4.97;2.20;;;15.00;60.60;;;;;;2290027;54;21006;-83
2023/02/17 02:42:26;;;;;;;3.62;2.00;;;15.00;60.80;;;;;;2289946;54;20993;-83
2023/02/17 02:44:53;;;;;;;7.20;2.80;;;15.00;62.90;;;;;;2522581;54;20910;-83
2023/02/17 02:51:05;;;;;;;4.68;2.50;;;14.90;62.70;;;;;;2523046;54;21671;-83
2023/02/17 02:54:02;;;;;;;5.70;2.25;;;15.00;61.20;;;;;;2291315;54;20910;-83
2023/02/17 02:59:58;;;;;;;5.30;2.60;;;14.90;61.50;;;;;;2524675;54;20910;-82
2023/02/17 03:03:05;;;;;;;4.43;2.10;;;14.90;61.60;;;;;;2525561;54;20902;-83
2023/02/17 03:05:41;;;;;;;5.43;2.10;;;14.90;62.70;;;;;;2290869;54;21141;-82
2023/02/17 03:08:19;;;;;;;4.90;2.15;;;14.90;62.80;;;;;;2522911;54;20942;-83
2023/02/17 03:10:46;;;;;;;5.30;2.50;;;14.90;63.10;;;;;;2522528;54;21006;-82
2023/02/17 03:13:12;;;;;;;5.62;2.87;;;14.90;63.20;;;;;;2289802;54;20990;-82
2023/02/17 03:15:39;;;;;;;5.28;2.97;;;14.80;63.00;;;;;;2522594;54;20930;-83
2023/02/17 03:18:05;;;;;;;4.87;2.60;;;14.80;63.00;;;;;;2294247;54;21067;-83
2023/02/17 03:20:36;;;;;;;6.18;2.87;;;14.80;62.90;;;;;;2523530;54;21001;-83
2023/02/17 03:23:03;;;;;;;5.47;3.17;;;14.90;62.70;;;;;;2522320;54;20906;-82
2023/02/17 03:25:30;;;;;;;6.32;3.12;;;14.80;62.80;;;;;;2522004;54;20993;-81
2023/02/17 03:27:56;;;;;;;4.30;2.53;;;14.80;62.80;;;;;;2289931;54;21293;-85
2023/02/17 03:30:22;;;;;;;6.90;2.80;;;14.90;62.90;;;;;;2522134;54;21797;-82
2023/02/17 03:32:49;;;;;;;5.82;2.72;;;14.80;62.80;;;;;;2290063;54;20961;-81
2023/02/17 03:35:15;;;;;;;5.78;3.10;;;14.90;62.90;;;;;;2290183;54;21295;-82
2023/02/17 03:37:41;;;;;;;5.90;3.22;;;14.90;62.80;;;;;;2522918;54;21345;-82
2023/02/17 03:40:08;;;;;;;4.00;2.47;;;14.90;62.80;;;;;;2523598;54;20914;-82
2023/02/17 03:42:34;;;;;;;6.80;3.17;;;14.90;62.80;;;;;;2295391;54;21019;-82
2023/02/17 03:45:00;;;;;;;4.80;2.87;;;14.90;62.70;;;;;;2522978;54;20923;-82
2023/02/17 03:47:30;;;;;;;6.18;2.67;;;14.90;62.60;;;;;;2522933;54;20929;-81
2023/02/17 03:49:56;;;;;;;5.03;2.80;;;14.90;62.40;;;;;;2523176;54;20930;-82
2023/02/17 03:52:22;;;;;;;5.62;2.70;;;14.90;62.70;;;;;;2290709;54;20997;-81
2023/02/17 03:54:49;;;;;;;5.10;2.65;;;14.90;62.70;;;;;;2290173;54;20914;-81
2023/02/17 03:57:16;;;;;;;5.22;2.97;;;14.90;62.80;;;;;;2289685;54;20918;-82
2023/02/17 03:59:42;;;;;;;5.18;2.62;;;14.90;62.70;;;;;;2522359;54;21159;-81
2023/02/17 04:02:08;;;;;;;5.25;3.03;;;14.90;62.90;;;;;;2290003;54;20977;-82
2023/02/17 04:04:35;;;;;;;5.53;2.65;;;14.90;62.90;;;;;;2289926;54;20961;-83
2023/02/17 04:07:01;;;;;;;4.57;2.62;;;14.90;62.80;;;;;;2522579;54;21262;-82
2023/02/17 04:09:27;;;;;;;5.95;3.22;;;14.90;62.70;;;;;;2294330;54;21826;-81
2023/02/17 04:11:53;;;;;;;5.22;2.87;;;15.00;62.80;;;;;;2522173;54;21266;-81
2023/02/17 04:14:20;;;;;;;4.87;2.83;;;14.90;62.70;;;;;;2522960;54;20973;-82
2023/02/17 04:16:46;;;;;;;4.62;2.70;;;14.90;62.70;;;;;;2522441;54;21024;-81
2023/02/17 04:19:12;;;;;;;5.82;2.70;;;14.90;62.60;;;;;;2523170;54;20950;-82
2023/02/17 04:21:40;;;;;;;4.60;2.50;;;15.00;62.70;;;;;;2290107;54;21109;-82
2023/02/17 04:24:06;;;;;;;5.05;2.75;;;15.00;62.80;;;;;;2289156;54;20997;-82
2023/02/17 04:26:32;;;;;;;4.60;2.37;;;14.90;63.50;;;;;;2521108;54;20975;-82
2023/02/17 04:28:59;;;;;;;4.43;2.58;;;15.00;63.00;;;;;;2520629;54;20966;-81
2023/02/17 04:31:26;;;;;;;5.82;2.75;;;15.00;63.00;;;;;;2288899;54;20925;-82
2023/02/17 04:33:54;;;;;;;4.70;2.40;;;14.90;62.90;;;;;;2522864;54;21791;-82
2023/02/17 04:36:20;;;;;;;5.75;2.70;;;15.00;63.10;;;;;;2522336;54;20978;-82
2023/02/17 04:38:46;;;;;;;6.00;3.17;;;15.00;62.90;;;;;;2522330;54;21399;-84
2023/02/17 04:41:12;;;;;;;4.50;2.45;;;15.00;62.90;;;;;;2522271;54;21458;-83
2023/02/17 04:43:39;;;;;;;6.10;2.80;;;15.00;62.80;;;;;;2522359;54;20957;-85
2023/02/17 04:46:05;;;;;;;4.32;2.40;;;15.00;62.90;;;;;;2522083;54;21061;-83
2023/02/17 04:48:32;;;;;;;5.60;2.80;;;15.00;62.90;;;;;;2522038;54;20942;-85
2023/02/17 04:50:58;;;;;;;5.30;2.53;;;15.00;63.00;;;;;;2522669;54;21698;-84
2023/02/17 04:53:24;;;;;;;7.40;2.67;;;15.00;62.90;;;;;;2289834;54;20955;-82
2023/02/17 04:55:51;;;;;;;5.30;2.72;;;15.00;63.00;;;;;;2522870;54;20997;-83
2023/02/17 04:58:17;;;;;;;5.07;2.60;;;15.00;62.90;;;;;;2522793;54;20918;-85
2023/02/17 05:00:46;;;;;;;4.80;2.62;;;15.00;63.00;;;;;;2522548;54;21584;-82
2023/02/17 05:03:12;;;;;;;6.50;2.95;;;15.00;62.80;;;;;;2522943;54;20934;-82
2023/02/17 05:05:38;;;;;;;6.55;3.08;;;15.00;62.80;;;;;;2522268;54;20918;-82
2023/02/17 05:08:04;;;;;;;5.37;2.87;;;15.00;62.80;;;;;;2290339;54;21259;-81
2023/02/17 05:10:31;;;;;;;7.10;2.95;;;15.00;62.80;;;;;;2522217;54;20962;-83
2023/02/17 05:12:57;;;;;;;6.72;3.05;;;15.00;62.80;;;;;;2522991;54;21177;-82
2023/02/17 05:15:23;;;;;;;5.28;2.75;;;15.00;62.70;;;;;;2522578;54;20977;-82
2023/02/17 05:17:50;;;;;;;5.75;2.62;;;15.00;62.70;;;;;;2289934;54;20934;-81
2023/02/17 05:20:16;;;;;;;5.30;2.70;;;15.00;62.80;;;;;;2290150;54;20926;-82
2023/02/17 05:22:42;;;;;;;5.12;2.95;;;15.00;62.80;;;;;;2290405;54;20918;-81
2023/02/17 05:25:09;;;;;;;5.35;2.55;;;14.90;62.70;;;;;;2290142;54;20970;-82
2023/02/17 05:27:35;;;;;;;4.87;2.50;;;15.00;62.90;;;;;;2289941;54;20965;-82
2023/02/17 05:30:01;;;;;;;4.55;2.65;;;15.00;62.90;;;;;;2522933;54;21009;-81
2023/02/17 05:32:28;;;;;;;5.12;2.75;;;15.00;62.90;;;;;;2290546;54;20997;-83
2023/02/17 05:34:54;;;;;;;5.20;2.90;;;15.10;62.90;;;;;;2522761;54;20901;-82
2023/02/17 05:37:20;;;;;;;6.97;3.15;;;15.00;62.80;;;;;;2522611;54;21395;-82
2023/02/17 05:39:46;;;;;;;4.53;2.75;;;15.00;62.80;;;;;;2522156;54;20962;-82
2023/02/17 05:42:13;;;;;;;6.35;3.35;;;15.00;62.60;;;;;;2522275;54;20921;-82
2023/02/17 05:44:39;;;;;;;5.65;3.58;;;15.00;62.50;;;;;;2522428;54;21331;-82
2023/02/17 05:47:05;;;;;;;5.30;3.28;;;15.00;62.60;;;;;;2522554;54;20933;-82
2023/02/17 05:49:32;;;;;;;7.35;3.37;;;15.00;62.50;;;;;;2522268;54;20954;-81
2023/02/17 05:51:58;;;;;;;6.70;3.20;;;15.00;62.60;;;;;;2522473;54;21486;-82
2023/02/17 05:54:24;;;;;;;6.22;3.25;;;14.90;62.40;;;;;;2522153;54;20902;-82
2023/02/17 05:56:50;;;;;;;7.50;3.58;;;14.90;62.50;;;;;;2522147;54;20937;-82
2023/02/17 05:59:17;;;;;;;7.12;3.80;;;14.90;62.50;;;;;;2522546;54;20968;-83
2023/02/17 06:01:43;;;;;;;7.22;3.65;;;15.00;62.50;;;;;;2290238;54;21750;-83
2023/02/17 06:04:09;;;;;;;6.25;3.40;;;14.90;63.10;;;;;;2522996;54;21236;-82
2023/02/17 06:06:36;;;;;;;5.82;3.50;;;14.90;62.40;;;;;;2522337;54;21064;-80
2023/02/17 06:09:02;;;;;;;5.68;3.10;;;14.90;62.30;;;;;;2290396;54;20981;-82
2023/02/17 06:11:28;;;;;;;6.45;3.70;;;14.90;62.20;;;;;;2522687;54;21818;-82
2023/02/17 06:13:55;;;;;;;5.57;2.97;;;15.00;62.20;;;;;;2290053;54;20934;-82
2023/02/17 06:16:21;;;;;;;4.72;2.78;;;14.90;62.30;;;;;;2523523;54;20946;-82
2023/02/17 06:18:48;;;;;;;5.60;2.83;;;14.90;62.20;;;;;;2289173;54;21970;-82
2023/02/17 06:21:14;;;;;;;5.18;2.78;;;15.00;62.40;;;;;;2521710;54;20930;-81
2023/02/17 06:23:40;;;;;;;5.62;2.60;;;14.90;62.30;;;;;;2522290;54;20910;-83
2023/02/17 06:26:07;;;;;;;4.75;2.50;;;14.90;62.30;;;;;;2522761;54;21096;-82
2023/02/17 06:28:34;;;;;;;5.75;2.80;;;14.90;62.40;;;;;;2522083;54;20965;-82
2023/02/17 06:31:00;;;;;;;4.05;2.15;;;14.90;62.30;;;;;;2523225;54;20936;-84
2023/02/17 06:33:27;;;;;;;4.85;2.47;;;14.90;62.40;;;;;;2522451;54;20946;-83
2023/02/17 06:35:53;;;;;;;5.10;2.47;;;14.90;62.50;;;;;;2290219;54;21264;-82
2023/02/17 06:38:20;;;;;;;5.05;2.65;;;14.90;62.30;;;;;;2522403;54;20926;-80
2023/02/17 06:40:46;;;;;;;4.93;2.58;;;15.00;62.40;;;;;;2522806;54;20989;-82
2023/02/17 06:43:13;;;;;;;6.70;2.80;;;14.90;62.40;;;;;;2290128;54;21264;-81
2023/02/17 06:45:39;;;;;;;5.12;2.62;;;14.90;62.40;;;;;;2290118;54;20997;-82
2023/02/17 06:48:05;;;;;;;5.60;3.05;;;14.90;62.50;;;;;;2522827;54;20981;-81
2023/02/17 06:50:32;;;;;;;7.00;2.58;;;14.90;62.60;;;;;;2522433;54;20930;-81
2023/02/17 06:52:58;;;;;;;4.00;2.30;;;15.00;62.70;;;;;;2290298;54;20909;-83
2023/02/17 06:55:24;;;;;;;5.00;2.42;;;15.00;62.80;;;;;;2524204;54;21507;-82
2023/02/17 06:57:51;;;;;;;3.60;2.10;;;14.90;62.60;;;;;;2522618;54;20909;-82
2023/02/17 07:00:18;;;;;;;5.45;2.55;;;14.90;62.60;;;;;;2290307;54;21038;-81
2023/02/17 07:02:44;;;;;;;6.22;2.40;;;14.90;62.60;;;;;;2522801;54;20922;-83
2023/02/17 07:05:10;;;;;;;4.18;2.20;;;14.90;62.70;;;;;;2290240;54;20921;-81
2023/02/17 07:07:37;;;;;;;4.32;2.22;;;14.90;62.70;;;;;;2289988;54;20929;-84
2023/02/17 07:10:04;;;;;;;4.85;2.33;;;14.90;62.70;;;;;;2290495;54;20910;-84
2023/02/17 07:12:30;;;;;;;4.10;2.05;;;14.90;62.90;;;;;;2290564;54;20950;-84
2023/02/17 07:14:56;;;;;;;6.50;2.65;;;14.90;62.90;;;;;;2290497;54;20949;-84
2023/02/17 07:17:23;;;;;;;6.45;2.92;;;14.90;62.60;;;;;;2290685;54;20989;-81
2023/02/17 07:19:49;;;;;;;5.87;2.17;;;14.90;62.80;;;;;;2290528;54;21067;-80
2023/02/17 07:22:16;;;;;;;5.87;3.03;;;14.90;62.90;;;;;;2524058;54;20918;-82
2023/02/17 07:24:42;;;;;;;6.75;2.83;;;14.90;63.00;;;;;;2523136;54;20921;-84
2023/02/17 07:27:08;;;;;;;6.37;2.92;;;14.90;63.10;;;;;;2522948;54;20997;-83
2023/02/17 07:29:36;;;;;;;5.40;2.83;;;14.90;63.20;;;;;;2522684;54;20929;-84
2023/02/17 07:32:02;;;;;;;6.28;2.50;;;14.90;63.20;;;;;;2290096;54;20901;-82
2023/02/17 07:34:29;;;;;;;4.07;2.30;;;14.90;63.20;;;;;;2522673;54;20974;-83
2023/02/17 07:36:55;;;;;;;4.85;2.58;;;14.90;63.20;;;;;;2522384;54;21507;-84
2023/02/17 07:39:21;;;;;;;4.82;2.30;;;14.90;63.20;;;;;;2523272;54;21239;-81
2023/02/17 07:41:47;;;;;;;4.50;2.00;;;14.90;63.30;;;;;;2523730;54;20922;-81
2023/02/17 07:44:14;;;;;;;5.18;2.50;;;14.90;63.30;;;;;;2522963;54;20910;-81
2023/02/17 07:46:40;;;;;;;5.70;2.67;;;14.90;63.30;;;;;;2523189;54;20933;-83
2023/02/17 07:49:06;;;;;;;6.00;2.37;;;14.90;63.30;;;;;;2523430;54;20958;-83
2023/02/17 07:51:32;;;;;;;4.18;2.12;;;14.90;63.30;;;;;;2523406;54;20989;-82
2023/02/17 07:54:00;;;;;;;4.87;2.25;;;14.90;63.30;;;;;;2290714;54;20985;-81
2023/02/17 07:56:28;;;;;;;4.35;2.30;;;14.90;63.30;;;;;;2523864;54;21021;-81
2023/02/17 07:58:55;;;;;;;7.53;2.53;;;14.90;63.50;;;;;;2291363;54;21332;-82
2023/02/17 08:01:22;;;;;;;4.30;1.85;;;14.90;63.60;;;;;;2523737;54;20961;-81
2023/02/17 08:03:49;;;;;;;6.00;2.22;;;14.90;63.70;;;;;;2523816;55;20961;-84
2023/02/17 08:06:19;;;;;;;5.32;2.53;;;14.80;63.60;;;;;;2524557;54;21908;-84
2023/02/17 08:14:15;;;;;;;4.55;2.30;;;14.90;63.70;;;;;;2526640;54;20921;-83
2023/02/17 08:16:42;;;;;;;6.20;2.47;;;14.90;63.80;;;;;;2525092;54;21081;-84
2023/02/17 08:19:08;;;;;;;3.97;1.87;;;14.90;63.80;;;;;;2523815;54;20918;-84
2023/02/17 08:21:34;;;;;;;4.15;1.90;;;15.00;64.10;;;;;;2522841;54;21071;-85
2023/02/17 08:24:00;;;;;;;4.45;2.40;;;15.00;64.10;;;;;;2521551;54;21959;-82
2023/02/17 08:26:27;;;;;;;5.12;2.35;;;15.00;64.00;;;;;;2521824;54;21006;-82
2023/02/17 08:28:53;;;;;;;4.93;2.30;;;15.00;63.90;;;;;;2521580;54;21494;-81
2023/02/17 08:31:25;;;;;;;8.48;4.07;;;15.00;63.90;;;;;;2521858;54;21026;-82
2023/02/17 08:33:51;;;;;;;6.97;2.47;;;15.00;63.90;;;;;;2522036;55;20989;-81
2023/02/17 08:36:19;;;;;;;5.80;2.70;;;15.00;64.00;;;;;;2521927;54;22182;-82
2023/02/17 08:38:49;;;;;;;5.10;3.00;;;15.00;64.00;;;;;;2288624;54;21001;-83
2023/02/17 08:41:18;;;;;;;4.90;2.53;;;15.00;64.10;;;;;;2520909;54;21052;-82
2023/02/17 08:43:44;;;;;;;6.00;3.00;;;15.10;64.30;;;;;;2519688;54;21064;-82
2023/02/17 08:46:11;;;;;;;7.45;2.75;;;15.10;64.10;;;;;;2288953;54;21367;-82
2023/02/17 08:48:37;;;;;;;6.22;2.80;;;15.10;64.10;;;;;;2520440;54;20942;-82
2023/02/17 08:51:04;;;;;;;7.35;2.85;;;15.10;64.10;;;;;;2521092;54;20946;-82
2023/02/17 08:53:30;;;;;;;5.43;2.92;;;15.10;64.00;;;;;;2293279;54;20967;-83
2023/02/17 08:55:57;;;;;;;5.03;2.90;;;15.10;64.10;;;;;;2520800;54;21762;-82
2023/02/17 08:58:23;;;;;;;4.25;2.47;;;15.10;64.00;;;;;;2288531;54;20966;-83
2023/02/17 09:00:50;;;;;;;8.18;2.67;;;15.10;64.10;;;;;;2520446;54;20974;-81
2023/02/17 09:03:16;;;;;;;7.32;2.85;;;15.10;64.20;;;;;;2521150;54;21454;-81
2023/02/17 09:05:42;;;;;;;4.53;2.45;;;15.10;64.30;;;;;;2289229;54;20989;-82
2023/02/17 09:08:09;;;;;;;4.87;2.60;;;15.10;64.20;;;;;;2290183;54;20882;-82
2023/02/17 09:10:36;;;;;;;6.05;2.78;;;15.10;64.20;;;;;;2521694;54;21009;-82
2023/02/17 09:13:03;;;;;;;4.15;2.40;;;15.10;64.30;;;;;;2289104;54;20993;-82
2023/02/17 09:15:29;;;;;;;4.75;2.75;;;15.10;64.30;;;;;;2521124;54;20934;-82
2023/02/17 09:17:56;;;;;;;5.55;2.70;;;15.10;64.30;;;;;;2521679;54;21383;-83
2023/02/17 09:20:22;;;;;;;5.78;2.75;;;15.10;64.30;;;;;;2289383;54;20978;-82
2023/02/17 09:22:51;;;;;;;4.32;2.50;;;15.10;64.30;;;;;;2520918;54;20986;-82
2023/02/17 09:25:18;;;;;;;5.30;2.85;;;15.10;64.40;;;;;;2522428;54;21589;-83
2023/02/17 09:27:44;;;;;;;4.60;2.42;;;15.10;64.40;;;;;;2519461;54;22005;-83
2023/02/17 09:30:11;;;;;;;5.10;2.78;;;15.10;64.60;;;;;;2520618;54;20965;-82
2023/02/17 09:32:40;;;;;;;4.82;2.87;;;15.10;64.70;;;;;;2520500;54;21010;-82
2023/02/17 09:35:07;;;;;;;6.90;2.92;;;15.10;64.70;;;;;;2518114;54;21010;-82
2023/02/17 09:37:33;;;;;;;4.12;2.45;;;15.10;64.80;;;;;;2287738;54;20968;-83
2023/02/17 09:39:59;;;;;;;4.25;2.45;;;15.10;64.80;;;;;;2520873;54;20922;-82
2023/02/17 09:42:26;;;;;;;4.68;2.47;;;15.10;65.00;;;;;;2520847;54;20977;-83
2023/02/17 09:45:07;;;;;;;6.75;3.03;;;15.10;65.10;;;;;;2290643;55;22056;-83
2023/02/17 09:47:45;;;;;;;4.50;2.97;;;15.10;65.00;;;;;;2519886;54;20977;-83
2023/02/17 09:50:14;;;;;;;6.03;3.08;;;15.10;64.80;;;;;;2520531;54;20949;-82
2023/02/17 09:52:55;;;;;;;7.12;3.30;;;15.10;65.10;;;;;;2286904;54;20990;-82
2023/02/17 09:55:38;;;;;;;5.37;2.78;;;15.10;64.80;;;;;;2520365;54;21022;-81
2023/02/17 09:58:24;;;;;;;4.70;2.40;;;15.10;65.10;;;;;;2518008;54;20970;-82
2023/02/17 10:00:54;;;;;;;5.50;2.90;;;15.10;65.20;;;;;;2519705;54;20996;-82
2023/02/17 10:04:43;;;;;;;5.50;2.47;;;15.20;65.40;;;;;;2520255;54;21013;-84
2023/02/17 10:07:19;;;;;;;5.03;2.12;;;15.20;64.50;;;;;;2289134;54;21536;-84
2023/02/17 10:09:48;;;;;;;5.82;2.45;;;15.20;66.00;;;;;;2520072;54;20931;-83
2023/02/17 10:12:24;;;;;;;4.47;2.50;;;15.20;65.50;;;;;;2520419;54;20965;-82
2023/02/17 10:14:57;;;;;;;7.18;2.60;;;15.20;65.00;;;;;;2520258;54;20934;-82
2023/02/17 10:17:39;;;;;;;5.97;2.70;;;15.20;65.20;;;;;;2520899;54;20986;-84
2023/02/17 10:20:37;;;;;;;3.97;2.37;;;15.20;65.00;;;;;;2521078;54;20977;-82
2023/02/17 10:23:12;;;;;;;3.78;2.17;;;15.20;65.10;;;;;;2287018;54;20937;-83
2023/02/17 10:26:06;;;;;;;3.40;2.00;;;15.20;65.30;;;;;;2522529;54;21011;-82
2023/02/17 10:29:43;;;;;;;5.53;3.20;;;15.30;65.10;;;;;;2522127;54;20982;-82
2023/02/17 10:32:23;;;;;;;5.68;2.47;;;15.30;64.80;;;;;;2288537;54;21330;-82
2023/02/17 10:35:01;;;;;;;5.40;2.75;;;15.30;65.60;;;;;;2519840;54;20941;-82
2023/02/17 10:37:53;;;;;;;5.55;2.60;;;15.30;65.50;;;;;;2520334;54;20969;-82
2023/02/17 10:40:26;;;;;;;4.68;2.30;;;15.30;65.20;;;;;;2519961;54;20970;-83
2023/02/17 10:43:01;;;;;;;7.68;2.87;;;15.30;65.60;;;;;;2519803;54;21061;-81
2023/02/17 10:45:50;;;;;;;3.87;2.42;;;15.30;65.90;;;;;;2520460;54;21864;-82
2023/02/17 10:48:22;;;;;;;5.87;2.78;;;15.30;65.30;;;;;;2520316;54;20926;-83
2023/02/17 10:50:48;;;;;;;5.87;3.00;;;15.30;65.80;;;;;;2286997;54;20985;-83
2023/02/17 10:53:21;;;;;;;4.87;2.67;;;15.30;65.90;;;;;;2520314;54;20930;-83
2023/02/17 10:56:11;;;;;;;5.07;2.58;;;15.30;65.90;;;;;;2520207;54;20985;-83
2023/02/17 11:00:14;;;;;;;5.85;2.87;;;15.40;65.80;;;;;;2520848;54;20914;-82
2023/02/17 11:02:42;;;;;;;4.80;2.97;;;15.40;65.30;;;;;;2522054;54;20924;-83
2023/02/17 11:05:26;;;;;;;5.25;2.72;;;15.50;66.30;;;;;;2521472;54;21914;-82
2023/02/17 11:09:27;;;;;;;5.32;2.08;;;15.50;65.80;;;;;;2521101;54;20976;-82
2023/02/17 11:12:05;;;;;;;5.35;2.72;;;15.50;65.20;;;;;;2521620;54;21086;-84
2023/02/17 11:14:32;;;;;;;6.40;2.60;;;15.50;65.70;;;;;;2522083;54;21057;-83
2023/02/17 11:17:03;;;;;;;4.18;2.47;;;15.50;66.00;;;;;;2521742;54;21058;-81
2023/02/17 11:19:33;;;;;;;5.12;2.50;;;15.50;65.90;;;;;;2522532;54;21023;-82
2023/02/17 11:22:02;;;;;;;4.50;2.33;;;15.60;65.90;;;;;;2521814;54;20990;-82
2023/02/17 11:24:32;;;;;;;7.03;3.40;;;15.60;66.20;;;;;;2521738;54;20961;-82
2023/02/17 11:27:09;;;;;;;5.45;2.85;;;15.70;66.20;;;;;;2521228;54;20891;-82
2023/02/17 11:29:35;;;;;;;5.10;2.78;;;15.70;66.30;;;;;;2520601;54;21346;-83
2023/02/17 11:32:05;;;;;;;5.28;3.03;;;15.70;66.20;;;;;;2520820;54;20973;-82
2023/02/17 11:34:33;;;;;;;6.00;2.92;;;15.70;66.20;;;;;;2521385;54;20970;-82
2023/02/17 11:37:25;;;;;;;6.10;2.85;;;15.80;66.30;;;;;;2520871;54;20973;-84
2023/02/17 11:39:52;;;;;;;12.05;5.20;;;15.80;65.90;;;;;;2288329;54;20986;-84
2023/02/17 11:42:26;;;;;;;11.68;5.40;;;15.80;66.30;;;;;;2521847;54;20910;-82
2023/02/17 11:44:54;;;;;;;10.60;4.10;;;15.90;66.20;;;;;;2287712;54;20933;-83
2023/02/17 11:47:41;;;;;;;9.10;3.75;;;15.90;66.10;;;;;;2519589;54;21412;-82
2023/02/17 11:50:30;;;;;;;6.15;3.10;;;16.00;65.50;;;;;;2520902;54;20926;-83
2023/02/17 11:55:17;;;;;;;5.53;3.10;;;16.00;65.70;;;;;;2521322;54;20926;-82
2023/02/17 11:59:46;;;;;;;6.25;3.35;;;16.10;65.20;;;;;;2520711;54;20918;-82
2023/02/17 12:02:42;;;;;;;7.43;3.55;;;16.10;65.40;;;;;;2288620;54;20937;-83
2023/02/17 12:05:23;;;;;;;7.40;3.60;;;16.30;65.20;;;;;;2521774;54;20890;-82
2023/02/17 12:09:39;;;;;;;5.37;2.70;;;16.20;65.60;;;;;;2521411;54;20930;-80
2023/02/17 12:15:40;;;;;;;4.37;2.62;;;16.30;65.30;;;;;;2520673;54;20961;-81
2023/02/17 12:18:40;;;;;;;4.10;2.35;;;16.40;65.80;;;;;;2288691;54;21014;-81
2023/02/17 12:23:56;;;;;;;4.93;2.15;;;16.40;65.20;;;;;;2521947;54;20959;-79
2023/02/17 12:36:43;;;;;;;6.20;2.50;;;16.50;65.40;;;;;;2288248;54;20937;-81
2023/02/17 12:39:44;;;;;;;4.82;1.92;;;16.60;64.90;;;;;;2522224;54;20975;-81
2023/02/17 12:42:38;;;;;;;4.78;2.20;;;16.60;65.80;;;;;;2287949;54;20991;-81
2023/02/17 12:45:16;;;;;;;6.25;2.62;;;16.60;65.50;;;;;;2288963;54;21013;-80
2023/02/17 12:47:58;;;;;;;4.62;2.65;;;16.60;65.20;;;;;;2520622;54;20969;-82
2023/02/17 12:50:53;;;;;;;4.45;2.50;;;16.60;64.90;;;;;;2294863;54;20918;-86
2023/02/17 12:54:17;;;;;;;5.28;2.22;;;16.70;64.70;;;;;;2527981;53;20982;-83
2023/02/17 13:00:16;;;;;;;3.50;2.10;;;16.70;64.40;;;;;;2529215;53;20949;-84
2023/02/17 13:02:43;;;;;;;5.05;2.40;;;16.80;64.90;;;;;;2294174;54;20875;-84
2023/02/17 13:05:22;;;;;;;5.00;2.35;;;16.80;65.70;;;;;;2307779;54;20929;-83
2023/02/17 13:08:09;;;;;;;5.30;2.40;;;16.80;65.20;;;;;;2293052;54;20914;-82
2023/02/17 13:10:37;;;;;;;5.90;2.37;;;16.80;65.60;;;;;;2522046;55;20979;-84
2023/02/17 13:13:10;;;;;;;4.60;2.33;;;16.80;65.70;;;;;;2293397;54;20970;-84
2023/02/17 13:15:43;;;;;;;5.15;2.60;;;16.90;65.30;;;;;;2527848;53;21072;-88
2023/02/17 13:18:29;;;;;;;4.68;2.10;;;16.90;65.20;;;;;;2528120;53;21787;-87
2023/02/17 13:21:00;;;;;;;4.85;2.10;;;16.90;64.60;;;;;;2295486;54;20981;-86
2023/02/17 13:23:38;;;;;;;6.25;2.50;;;16.90;65.20;;;;;;2528877;53;20926;-89
2023/02/17 13:26:46;;;;;;;4.78;2.17;;;16.90;64.70;;;;;;2529240;53;20903;-87
2023/02/17 13:31:08;;;;;;;3.90;2.08;;;17.00;64.10;;;;;;2528644;53;20886;-87
2023/02/17 13:33:40;;;;;;;5.97;2.83;;;17.00;64.00;;;;;;2295049;54;20894;-88
2023/02/17 13:37:20;;;;;;;4.62;2.42;;;17.00;64.90;;;;;;2528947;53;20890;-88
2023/02/17 13:39:46;;;;;;;4.20;1.80;;;17.00;64.50;;;;;;2528842;53;20918;-87
2023/02/17 13:42:36;;;;;;;3.90;2.10;;;17.00;65.20;;;;;;2527306;53;20906;-86
2023/02/17 13:46:55;;;;;;;3.85;2.10;;;17.10;64.50;;;;;;2289602;54;20922;-82
2023/02/17 13:49:25;;;;;;;4.47;1.98;;;17.10;64.20;;;;;;2288388;54;20990;-83
2023/02/17 13:51:51;;;;;;;4.60;2.10;;;17.10;65.40;;;;;;2288162;54;20958;-84
2023/02/17 13:54:20;;;;;;;5.40;2.20;;;17.20;65.60;;;;;;2521296;54;20952;-83
2023/02/17 13:56:50;;;;;;;4.35;1.80;;;17.20;65.40;;;;;;2521641;54;21332;-84
2023/02/17 13:59:22;;;;;;;3.85;2.20;;;17.20;65.30;;;;;;2289294;54;21015;-80
2023/02/17 14:01:49;;;;;;;5.12;2.30;;;17.30;65.60;;;;;;2520972;54;20937;-83